createdAt,value
2022-12-05T00:00:00.287Z,80.3
2022-12-05T00:10:00.431Z,79.4
2022-12-05T00:20:00.619Z,78.9
2022-12-05T00:30:00.705Z,78.2
2022-12-05T00:40:00.535Z,78.4
2022-12-05T00:50:00.502Z,80.6
2022-12-05T01:00:00.327Z,82.6
2022-12-05T01:10:00.255Z,82.0
2022-12-05T01:20:00.485Z,82.3
2022-12-05T01:30:01.797Z,82.0
2022-12-05T01:40:00.539Z,82.9
2022-12-05T01:50:00.899Z,82.5
2022-12-05T02:00:00.717Z,83.1
2022-12-05T02:10:00.763Z,83.0
2022-12-05T02:20:00.757Z,83.6
2022-12-05T02:30:00.900Z,83.1
2022-12-05T02:40:00.861Z,83.4
2022-12-05T02:50:00.645Z,83.5
2022-12-05T03:00:00.698Z,83.5
2022-12-05T03:10:00.606Z,83.8
2022-12-05T03:20:00.744Z,84.4
2022-12-05T03:30:00.640Z,84.0
2022-12-05T03:40:00.399Z,84.3
2022-12-05T03:50:00.528Z,85.5
2022-12-05T04:00:00.677Z,87.1
2022-12-05T04:10:00.723Z,87.1
2022-12-05T04:20:00.463Z,87.5
2022-12-05T04:30:00.744Z,88.3
2022-12-05T04:40:00.700Z,88.1
2022-12-05T04:50:00.605Z,88.8
2022-12-05T05:00:00.863Z,89.0
2022-12-05T05:10:00.546Z,89.6
2022-12-05T05:20:00.477Z,89.0
2022-12-05T05:30:00.471Z,89.6
2022-12-05T05:40:03.829Z,89.9
2022-12-05T05:50:00.693Z,89.2
2022-12-05T06:00:00.684Z,88.2
2022-12-05T06:10:00.724Z,87.2
2022-12-05T06:20:00.655Z,87.0
2022-12-05T06:30:00.885Z,87.5
2022-12-05T06:40:00.957Z,87.5
2022-12-05T06:50:01.509Z,86.5
2022-12-05T07:00:00.424Z,87.3
2022-12-05T07:10:00.660Z,87.7
2022-12-05T07:20:00.701Z,88.1
2022-12-05T07:30:00.464Z,87.8
2022-12-05T07:40:00.746Z,86.7
2022-12-05T07:50:00.589Z,87.6
2022-12-05T08:00:00.558Z,87.6
2022-12-05T08:10:00.602Z,87.3
2022-12-05T08:20:00.490Z,88.5
2022-12-05T08:30:00.551Z,87.1
2022-12-05T08:40:00.577Z,87.7
2022-12-05T08:50:00.723Z,86.6
2022-12-05T09:00:00.274Z,86.2
2022-12-05T09:10:00.240Z,86.7
2022-12-05T09:20:00.274Z,85.2
2022-12-05T09:30:00.507Z,85.9
2022-12-05T09:40:00.669Z,84.5
2022-12-05T09:50:00.769Z,84.5
2022-12-05T10:00:00.642Z,85.2
2022-12-05T10:10:00.745Z,85.1
2022-12-05T10:20:00.590Z,83.4
2022-12-05T10:30:00.739Z,82.1
2022-12-05T10:40:01.216Z,85.5
2022-12-05T10:50:00.309Z,84.2
2022-12-05T11:00:00.280Z,85.3
2022-12-05T11:10:00.249Z,84.9
2022-12-05T11:20:00.276Z,85.2
2022-12-05T11:30:00.238Z,86.5
2022-12-05T11:40:00.231Z,85.7
2022-12-05T11:50:00.265Z,86.0
2022-12-05T12:00:00.618Z,86.7
2022-12-05T12:10:00.318Z,86.5
2022-12-05T12:20:00.203Z,85.1
2022-12-05T12:30:00.276Z,85.3
2022-12-05T12:40:00.269Z,85.0
2022-12-05T12:50:00.240Z,85.7
2022-12-05T13:10:00.291Z,88.3
2022-12-05T13:20:00.238Z,88.8
2022-12-05T13:30:01.016Z,89.1
2022-12-05T13:40:00.653Z,88.0
2022-12-05T13:50:00.846Z,87.8
2022-12-05T14:00:01.280Z,87.3
2022-12-05T14:10:00.911Z,88.0
2022-12-05T14:20:00.933Z,88.0
2022-12-05T14:30:00.869Z,88.2
2022-12-05T14:40:00.729Z,88.8
2022-12-05T14:50:00.390Z,87.9
2022-12-05T15:00:00.551Z,87.0
2022-12-05T15:10:00.685Z,86.2
2022-12-05T15:20:00.751Z,86.9
2022-12-05T15:30:00.232Z,87.8
2022-12-05T15:40:00.267Z,86.6
2022-12-05T15:50:00.526Z,86.0
2022-12-05T16:00:00.834Z,86.3
2022-12-05T17:08:33.928Z,87.5
2022-12-05T17:10:00.218Z,87.4
2022-12-05T17:20:00.723Z,87.7
2022-12-05T17:30:00.843Z,88.2
2022-12-05T17:40:00.826Z,88.2
2022-12-05T17:50:00.883Z,87.9
2022-12-05T18:00:00.434Z,87.9
2022-12-05T18:10:00.259Z,87.9
2022-12-05T18:20:00.257Z,88.4
2022-12-05T18:30:00.258Z,88.1
2022-12-05T18:40:00.262Z,88.5
2022-12-05T18:50:00.223Z,87.4
2022-12-05T19:00:00.317Z,88.3
2022-12-05T19:10:00.262Z,88.1
2022-12-05T19:20:00.224Z,88.1
2022-12-05T19:30:03.813Z,88.4
2022-12-05T19:40:00.517Z,89.2
2022-12-05T19:50:00.567Z,90.1
2022-12-05T20:00:00.725Z,91.0
2022-12-05T20:10:00.662Z,90.7
2022-12-05T20:20:00.534Z,91.6
2022-12-05T20:30:00.694Z,91.1
2022-12-05T20:40:00.599Z,91.3
2022-12-05T20:50:00.887Z,91.4
2022-12-05T21:00:01.299Z,91.6
2022-12-05T21:10:06.372Z,91.2
2022-12-05T21:20:00.884Z,90.9
2022-12-05T21:30:01.123Z,90.8
2022-12-05T21:40:01.085Z,90.2
2022-12-05T21:50:00.918Z,90.8
2022-12-05T22:00:00.832Z,89.7
2022-12-05T22:10:00.640Z,89.2
2022-12-05T22:20:00.689Z,89.1
2022-12-05T22:30:00.524Z,89.3
2022-12-05T22:40:00.531Z,89.5
2022-12-05T22:50:00.497Z,89.2
2022-12-05T23:00:00.583Z,89.1
2022-12-05T23:10:00.653Z,89.0
2022-12-05T23:20:00.513Z,89.1
2022-12-05T23:30:00.699Z,89.4
2022-12-05T23:40:00.649Z,89.7
2022-12-05T23:50:00.407Z,89.7
